createdAt,value
2019-05-17T00:02:07.294Z,9.10
2019-05-17T00:04:36.370Z,9.10
2019-05-17T00:07:06.307Z,9.10
2019-05-17T00:09:33.778Z,9.00
2019-05-17T00:12:01.501Z,8.90
2019-05-17T00:14:29.323Z,8.90
2019-05-17T00:16:57.385Z,8.90
2019-05-17T00:19:26.321Z,8.90
2019-05-17T00:21:56.501Z,8.80
2019-05-17T00:24:26.367Z,8.80
2019-05-17T00:26:53.845Z,8.80
2019-05-17T00:29:21.610Z,8.70
2019-05-17T00:31:49.493Z,8.60
2019-05-17T00:34:17.432Z,8.60
2019-05-17T00:36:46.905Z,8.60
2019-05-17T00:39:16.659Z,8.60
2019-05-17T00:41:46.793Z,8.50
2019-05-17T00:44:13.836Z,8.50
2019-05-17T00:46:41.461Z,8.50
2019-05-17T00:49:09.149Z,8.40
2019-05-17T00:51:37.002Z,8.40
2019-05-17T00:54:06.786Z,8.30
2019-05-17T00:56:37.047Z,8.30
2019-05-17T00:59:04.385Z,8.30
2019-05-17T01:01:32.038Z,8.30
2019-05-17T01:03:59.919Z,8.20
2019-05-17T01:06:27.694Z,8.20
2019-05-17T01:09:01.567Z,8.10
2019-05-17T01:11:28.442Z,8.10
2019-05-17T01:13:58.509Z,8.10
2019-05-17T01:16:27.222Z,8.10
2019-05-17T01:18:57.193Z,8.00
2019-05-17T01:21:26.277Z,8.00
2019-05-17T01:23:56.112Z,7.90
2019-05-17T01:26:23.602Z,7.90
2019-05-17T01:28:51.331Z,7.90
2019-05-17T01:31:18.887Z,7.90
2019-05-17T01:33:47.123Z,7.80
2019-05-17T01:36:17.153Z,7.80
2019-05-17T01:38:46.762Z,7.80
2019-05-17T01:41:13.772Z,7.70
2019-05-17T01:43:41.432Z,7.70
2019-05-17T01:46:09.503Z,7.70
2019-05-17T01:48:37.112Z,7.70
2019-05-17T01:51:07.306Z,7.70
2019-05-17T01:53:36.390Z,7.60
2019-05-17T01:56:06.181Z,7.60
2019-05-17T01:58:33.613Z,7.50
2019-05-17T02:01:01.620Z,7.50
2019-05-17T02:03:29.709Z,7.50
2019-05-17T02:05:57.678Z,7.50
2019-05-17T02:08:26.452Z,7.50
2019-05-17T02:10:54.311Z,7.40
2019-05-17T02:13:22.929Z,7.40
2019-05-17T02:15:50.531Z,7.40
2019-05-17T02:18:18.165Z,7.40
2019-05-17T02:20:46.507Z,7.30
2019-05-17T02:23:14.575Z,7.30
2019-05-17T02:25:42.264Z,7.30
2019-05-17T02:28:12.091Z,7.30
2019-05-17T02:30:39.783Z,7.20
2019-05-17T02:33:07.900Z,7.20
2019-05-17T02:35:35.532Z,7.10
2019-05-17T02:38:04.859Z,7.10
2019-05-17T02:40:34.023Z,7.20
2019-05-17T02:43:03.230Z,7.20
2019-05-17T02:45:32.787Z,7.10
2019-05-17T02:48:03.829Z,7.10
2019-05-17T02:50:33.144Z,7.10
2019-05-17T02:53:04.164Z,7.10
2019-05-17T02:55:32.511Z,7.10
2019-05-17T02:58:03.131Z,7.10
2019-05-17T03:00:33.778Z,7.10
2019-05-17T03:03:03.380Z,7.00
2019-05-17T03:05:33.620Z,7.10
2019-05-17T03:08:03.594Z,7.00
2019-05-17T03:10:29.647Z,7.00
2019-05-17T03:12:57.367Z,7.00
2019-05-17T03:15:25.099Z,6.90
2019-05-17T03:17:53.837Z,6.90
2019-05-17T03:20:24.392Z,6.90
2019-05-17T03:22:52.823Z,6.90
2019-05-17T03:25:23.625Z,6.80
2019-05-17T03:27:53.362Z,6.80
2019-05-17T03:30:25.185Z,6.80
2019-05-17T03:32:55.546Z,6.70
2019-05-17T03:35:19.326Z,6.70
2019-05-17T03:37:47.041Z,6.70
2019-05-17T03:40:30.651Z,6.70
2019-05-17T03:42:44.915Z,6.60
2019-05-17T03:45:13.749Z,6.60
2019-05-17T03:47:44.350Z,6.60
2019-05-17T03:50:13.514Z,6.60
2019-05-17T03:52:44.584Z,6.50
2019-05-17T03:55:13.174Z,6.60
2019-05-17T03:57:43.626Z,6.50
2019-05-17T04:00:13.082Z,6.50
2019-05-17T04:02:39.523Z,6.50
2019-05-17T04:05:07.715Z,6.50
2019-05-17T04:07:36.427Z,6.50
2019-05-17T04:10:04.923Z,6.50
2019-05-17T04:12:32.885Z,6.50
2019-05-17T04:15:03.174Z,6.50
2019-05-17T04:17:32.771Z,6.50
2019-05-17T04:20:03.488Z,6.50
2019-05-17T04:22:32.868Z,6.50
2019-05-17T04:25:02.803Z,6.50
2019-05-17T04:27:29.290Z,6.60
2019-05-17T04:29:56.898Z,6.70
2019-05-17T04:32:24.513Z,6.70
2019-05-17T04:34:52.663Z,6.70
2019-05-17T04:37:22.928Z,6.70
2019-05-17T04:39:52.496Z,6.70
2019-05-17T04:42:22.429Z,6.80
2019-05-17T04:44:48.858Z,6.80
2019-05-17T04:47:16.549Z,6.80
2019-05-17T04:49:44.394Z,6.90
2019-05-17T04:52:13.780Z,6.90
2019-05-17T04:54:42.471Z,6.90
2019-05-17T04:57:13.118Z,6.90
2019-05-17T04:59:43.150Z,7.00
2019-05-17T05:02:09.415Z,7.00
2019-05-17T05:04:38.556Z,7.10
2019-05-17T05:07:07.549Z,7.10
2019-05-17T05:09:36.671Z,7.20
2019-05-17T05:12:06.304Z,7.20
2019-05-17T05:14:33.811Z,7.30
2019-05-17T05:17:02.546Z,7.40
2019-05-17T05:19:32.737Z,7.50
2019-05-17T05:22:04.045Z,7.50
2019-05-17T05:24:31.441Z,7.60
2019-05-17T05:26:59.020Z,7.70
2019-05-17T05:29:26.829Z,7.80
2019-05-17T05:31:54.461Z,7.90
2019-05-17T05:34:22.033Z,8.00
2019-05-17T05:36:49.719Z,8.10
2019-05-17T05:39:17.272Z,8.10
2019-05-17T05:41:44.937Z,8.20
2019-05-17T05:44:13.505Z,8.40
2019-05-17T05:46:42.176Z,8.50
2019-05-17T05:49:12.205Z,8.50
2019-05-17T05:51:39.598Z,8.70
2019-05-17T05:54:07.232Z,8.80
2019-05-17T05:56:34.764Z,8.90
2019-05-17T05:59:02.969Z,9.00
2019-05-17T06:01:32.619Z,9.10
2019-05-17T06:04:02.532Z,9.20
2019-05-17T06:06:32.051Z,9.30
2019-05-17T06:08:59.807Z,9.40
2019-05-17T06:11:27.469Z,9.50
2019-05-17T06:13:55.111Z,9.60
2019-05-17T06:16:22.904Z,9.70
2019-05-17T06:18:51.644Z,9.80
2019-05-17T06:21:19.366Z,9.90
2019-05-17T06:23:46.970Z,10.00
2019-05-17T06:26:17.886Z,10.10
2019-05-17T06:28:44.530Z,10.20
2019-05-17T06:31:15.038Z,10.30
2019-05-17T06:33:42.311Z,10.40
2019-05-17T06:36:09.880Z,10.50
2019-05-17T06:38:37.592Z,10.60
2019-05-17T06:41:05.486Z,10.60
2019-05-17T06:43:33.129Z,10.80
2019-05-17T06:46:02.108Z,10.80
2019-05-17T06:48:31.894Z,10.90
2019-05-17T06:50:59.541Z,11.00
2019-05-17T06:53:27.102Z,11.10
2019-05-17T06:55:54.766Z,11.20
2019-05-17T06:58:22.879Z,11.30
2019-05-17T07:00:50.832Z,11.30
2019-05-17T07:03:19.836Z,11.40
2019-05-17T07:05:50.262Z,11.50
2019-05-17T07:08:20.044Z,11.60
2019-05-17T07:10:50.201Z,11.60
2019-05-17T07:13:17.163Z,11.70
2019-05-17T07:15:47.979Z,11.80
2019-05-17T07:18:14.547Z,11.80
2019-05-17T07:20:42.478Z,11.90
2019-05-17T07:23:10.716Z,12.00
2019-05-17T07:25:39.665Z,12.10
2019-05-17T07:28:09.770Z,12.20
2019-05-17T07:30:39.700Z,12.30
2019-05-17T07:33:06.643Z,12.40
2019-05-17T07:35:34.612Z,12.50
2019-05-17T07:38:02.327Z,12.50
2019-05-17T07:40:30.403Z,12.60
2019-05-17T07:43:10.172Z,12.70
2019-05-17T07:45:29.565Z,12.70
2019-05-17T07:47:57.463Z,12.80
2019-05-17T07:50:25.067Z,12.90
2019-05-17T07:52:52.655Z,12.90
2019-05-17T07:55:22.896Z,12.90
2019-05-17T07:57:49.866Z,13.00
2019-05-17T08:00:20.098Z,13.10
2019-05-17T08:02:47.363Z,13.10
2019-05-17T08:05:15.393Z,13.20
2019-05-17T08:07:43.111Z,13.30
2019-05-17T08:10:11.500Z,13.30
2019-05-17T08:12:40.652Z,13.30
2019-05-17T08:15:10.786Z,13.40
2019-05-17T08:17:39.671Z,13.50
2019-05-17T08:20:10.085Z,13.50
2019-05-17T08:22:39.922Z,13.50
2019-05-17T08:25:09.877Z,13.60
2019-05-17T08:27:37.363Z,13.70
2019-05-17T08:30:05.854Z,13.70
2019-05-17T08:32:33.568Z,13.80
2019-05-17T08:35:01.145Z,13.90
2019-05-17T08:37:30.191Z,13.90
2019-05-17T08:40:00.137Z,14.00
2019-05-17T08:42:29.908Z,14.00
2019-05-17T08:44:57.103Z,14.00
2019-05-17T08:47:24.714Z,14.10
2019-05-17T08:49:52.377Z,14.10
2019-05-17T08:52:20.200Z,14.20
2019-05-17T08:54:49.595Z,14.30
2019-05-17T08:57:20.241Z,14.40
2019-05-17T08:59:49.587Z,14.40
2019-05-17T09:02:16.590Z,14.40
2019-05-17T09:04:44.167Z,14.40
2019-05-17T09:07:12.163Z,14.40
2019-05-17T09:09:39.939Z,14.50
2019-05-17T09:12:07.884Z,14.60
2019-05-17T09:14:35.690Z,14.70
2019-05-17T09:17:03.330Z,14.80
2019-05-17T09:19:31.189Z,14.80
2019-05-17T09:21:59.839Z,14.90
2019-05-17T09:24:29.899Z,15.00
2019-05-17T09:26:57.240Z,15.00
2019-05-17T09:29:24.907Z,15.00
2019-05-17T09:31:52.745Z,15.10
2019-05-17T09:34:20.480Z,15.20
2019-05-17T09:36:49.716Z,15.10
2019-05-17T09:39:17.572Z,15.10
2019-05-17T09:41:47.102Z,15.20
2019-05-17T09:44:16.320Z,15.30
2019-05-17T09:46:44.727Z,15.50
2019-05-17T09:49:12.843Z,15.50
2019-05-17T09:51:40.591Z,15.50
2019-05-17T09:54:10.290Z,15.60
2019-05-17T09:56:39.481Z,15.70
2019-05-17T09:59:09.756Z,15.60
2019-05-17T10:01:39.298Z,15.50
2019-05-17T10:04:06.576Z,15.50
2019-05-17T10:06:34.355Z,15.50
2019-05-17T10:09:02.125Z,15.70
2019-05-17T10:11:31.763Z,15.80
2019-05-17T10:14:01.310Z,15.90
2019-05-17T10:16:30.771Z,15.90
2019-05-17T10:19:09.600Z,15.90
2019-05-17T10:21:39.420Z,16.10
2019-05-17T10:24:09.416Z,16.10
2019-05-17T10:26:36.473Z,16.20
2019-05-17T10:29:04.281Z,16.10
2019-05-17T10:31:31.962Z,16.10
2019-05-17T10:34:01.074Z,16.10
2019-05-17T10:36:29.370Z,16.30
2019-05-17T10:38:59.199Z,16.40
2019-05-17T10:41:26.820Z,16.50
2019-05-17T10:43:54.788Z,16.60
2019-05-17T10:46:22.454Z,16.60
2019-05-17T10:48:50.226Z,16.70
2019-05-17T10:51:20.072Z,16.70
2019-05-17T10:53:47.552Z,16.70
2019-05-17T10:56:16.345Z,16.60
2019-05-17T10:58:44.189Z,16.60
2019-05-17T11:01:11.970Z,16.80
2019-05-17T11:03:39.897Z,16.70
2019-05-17T11:06:10.679Z,16.80
2019-05-17T11:08:37.264Z,16.90
2019-05-17T11:11:04.967Z,17.00
2019-05-17T11:13:32.552Z,17.10
2019-05-17T11:16:00.391Z,17.20
2019-05-17T11:18:27.980Z,17.20
2019-05-17T11:20:56.313Z,17.30
2019-05-17T11:23:23.997Z,17.40
2019-05-17T11:25:51.757Z,17.40
2019-05-17T11:28:19.417Z,17.40
2019-05-17T11:30:46.975Z,17.40
2019-05-17T11:33:14.481Z,17.50
2019-05-17T11:35:42.141Z,17.60
2019-05-17T11:38:09.803Z,17.70
2019-05-17T11:40:37.789Z,17.80
2019-05-17T11:43:05.905Z,17.90
2019-05-17T11:45:33.662Z,18.00
2019-05-17T11:48:01.411Z,17.90
2019-05-17T11:50:29.518Z,17.90
2019-05-17T11:52:57.679Z,17.90
2019-05-17T11:55:25.319Z,17.90
2019-05-17T11:57:53.189Z,17.90
2019-05-17T12:00:21.258Z,18.00
2019-05-17T12:02:49.038Z,18.20
2019-05-17T12:05:16.675Z,18.30
2019-05-17T12:07:44.620Z,18.30
2019-05-17T12:10:12.673Z,18.20
2019-05-17T12:12:40.394Z,18.20
2019-05-17T12:15:09.194Z,18.10
2019-05-17T12:17:36.783Z,18.10
2019-05-17T12:20:04.830Z,18.10
2019-05-17T12:22:32.524Z,18.00
2019-05-17T12:25:00.206Z,18.00
2019-05-17T12:27:28.248Z,18.10
2019-05-17T12:29:55.911Z,18.30
2019-05-17T12:32:23.863Z,18.40
2019-05-17T12:34:51.821Z,18.50
2019-05-17T12:37:19.869Z,18.50
2019-05-17T12:39:48.187Z,18.60
2019-05-17T12:42:15.713Z,18.70
2019-05-17T12:44:44.029Z,18.70
2019-05-17T12:47:11.694Z,18.80
2019-05-17T12:49:39.431Z,18.90
2019-05-17T12:52:07.334Z,18.90
2019-05-17T12:54:34.955Z,18.80
2019-05-17T12:57:04.662Z,18.80
2019-05-17T12:59:32.180Z,18.90
2019-05-17T13:01:59.811Z,18.80
2019-05-17T13:04:27.586Z,18.90
2019-05-17T13:06:55.290Z,18.80
2019-05-17T13:09:23.954Z,18.70
2019-05-17T13:11:51.721Z,18.60
2019-05-17T13:14:19.357Z,18.60
2019-05-17T13:16:46.932Z,18.70
2019-05-17T13:19:14.375Z,18.70
2019-05-17T13:21:42.108Z,18.70
2019-05-17T13:24:09.767Z,18.80
2019-05-17T13:26:37.436Z,18.80
2019-05-17T13:29:05.063Z,18.80
2019-05-17T13:31:32.760Z,18.80
2019-05-17T13:34:00.405Z,18.90
2019-05-17T13:36:28.119Z,18.80
2019-05-17T13:38:55.933Z,18.90
2019-05-17T13:41:24.065Z,18.80
2019-05-17T13:43:51.770Z,18.90
2019-05-17T13:46:32.052Z,19.00
2019-05-17T13:48:49.032Z,19.00
2019-05-17T13:51:17.111Z,19.10
2019-05-17T13:53:44.898Z,19.10
2019-05-17T13:56:12.515Z,19.10
2019-05-17T13:58:40.211Z,19.10
2019-05-17T14:01:08.086Z,19.10
2019-05-17T14:03:35.802Z,19.10
2019-05-17T14:06:03.581Z,19.10
2019-05-17T14:08:31.319Z,19.20
2019-05-17T14:10:58.996Z,19.20
2019-05-17T14:13:26.646Z,19.30
2019-05-17T14:15:54.380Z,19.30
2019-05-17T14:18:22.126Z,19.40
2019-05-17T14:20:49.880Z,19.40
2019-05-17T14:23:17.606Z,19.30
2019-05-17T14:25:45.364Z,19.30
2019-05-17T14:28:13.021Z,19.30
2019-05-17T14:30:41.204Z,19.20
2019-05-17T14:33:09.892Z,19.20
2019-05-17T14:35:37.469Z,19.10
2019-05-17T14:38:05.164Z,19.00
2019-05-17T14:41:03.945Z,19.00
2019-05-17T14:43:02.515Z,18.90
2019-05-17T14:45:30.236Z,18.90
2019-05-17T14:47:57.762Z,18.80
2019-05-17T14:50:25.339Z,18.80
2019-05-17T14:52:52.962Z,18.70
2019-05-17T14:55:21.641Z,18.60
2019-05-17T14:57:49.605Z,18.30
2019-05-17T15:00:17.409Z,17.90
2019-05-17T15:02:45.276Z,17.60
2019-05-17T15:05:13.058Z,17.30
2019-05-17T15:07:40.942Z,17.10
2019-05-17T15:10:10.954Z,16.90
2019-05-17T15:12:38.759Z,16.70
2019-05-17T15:15:07.084Z,16.50
2019-05-17T15:17:35.423Z,16.50
2019-05-17T15:23:51.248Z,16.20
2019-05-17T15:27:11.049Z,16.10
2019-05-17T15:29:51.523Z,15.80
2019-05-17T15:32:46.733Z,15.70
2019-05-17T15:35:34.341Z,15.60
2019-05-17T15:38:06.841Z,15.50
2019-05-17T15:40:59.569Z,15.40
2019-05-17T15:43:27.421Z,15.30
2019-05-17T15:45:55.059Z,15.10
2019-05-17T15:48:22.797Z,15.10
2019-05-17T15:50:50.532Z,15.00
2019-05-17T15:53:18.127Z,14.90
2019-05-17T15:55:45.994Z,14.90
2019-05-17T15:58:13.901Z,14.80
2019-05-17T16:00:42.193Z,14.80
2019-05-17T16:03:10.348Z,14.80
2019-05-17T16:05:38.941Z,14.80
2019-05-17T16:08:07.112Z,14.80
2019-05-17T16:10:35.182Z,14.80
2019-05-17T16:13:03.681Z,14.80
2019-05-17T16:15:31.039Z,14.80
2019-05-17T16:17:58.295Z,14.80
2019-05-17T16:20:26.752Z,14.80
2019-05-17T16:22:54.098Z,14.80
2019-05-17T16:25:21.463Z,14.80
2019-05-17T16:27:49.542Z,14.80
2019-05-17T16:30:16.932Z,14.80
2019-05-17T16:32:44.526Z,14.90
2019-05-17T16:35:11.982Z,14.90
2019-05-17T16:37:40.686Z,14.90
2019-05-17T16:40:08.738Z,15.00
2019-05-17T16:42:35.982Z,15.00
2019-05-17T16:45:05.090Z,15.10
2019-05-17T16:47:32.843Z,15.10
2019-05-17T16:50:00.097Z,15.00
2019-05-17T16:52:27.737Z,15.10
2019-05-17T16:54:55.121Z,15.10
2019-05-17T16:57:22.437Z,15.10
2019-05-17T16:59:49.697Z,15.10
2019-05-17T17:02:16.927Z,15.10
2019-05-17T17:04:44.293Z,15.10
2019-05-17T17:07:11.587Z,15.10
2019-05-17T17:09:38.929Z,15.10
2019-05-17T17:12:07.362Z,15.10
2019-05-17T17:14:34.855Z,15.20
2019-05-17T17:17:09.145Z,15.20
2019-05-17T17:19:31.474Z,15.20
2019-05-17T17:21:58.866Z,15.10
2019-05-17T17:24:26.198Z,15.20
2019-05-17T17:26:53.581Z,15.10
2019-05-17T17:29:20.826Z,15.10
2019-05-17T17:31:48.232Z,15.00
2019-05-17T17:34:15.830Z,15.00
2019-05-17T17:36:43.118Z,15.00
2019-05-17T17:39:10.351Z,15.00
2019-05-17T17:41:38.051Z,15.00
2019-05-17T17:44:05.396Z,15.00
2019-05-17T17:46:32.906Z,15.00
2019-05-17T17:49:00.443Z,15.00
2019-05-17T17:51:27.961Z,15.00
2019-05-17T17:53:55.523Z,15.00
2019-05-17T17:56:23.013Z,14.90
2019-05-17T17:58:50.411Z,15.00
2019-05-17T18:01:17.791Z,14.90
2019-05-17T18:03:45.186Z,14.90
2019-05-17T18:06:12.562Z,14.90
2019-05-17T18:08:40.286Z,14.80
2019-05-17T18:11:07.571Z,14.80
2019-05-17T18:13:34.822Z,14.80
2019-05-17T18:16:02.092Z,14.70
2019-05-17T18:18:29.272Z,14.70
2019-05-17T18:20:56.499Z,14.70
2019-05-17T18:23:23.791Z,14.70
2019-05-17T18:25:51.222Z,14.70
2019-05-17T18:28:19.422Z,14.70
2019-05-17T18:30:46.710Z,14.60
2019-05-17T18:33:14.171Z,14.60
2019-05-17T18:35:41.585Z,14.50
2019-05-17T18:38:09.143Z,14.50
2019-05-17T18:40:37.554Z,14.50
2019-05-17T18:43:04.772Z,14.40
2019-05-17T18:45:32.062Z,14.40
2019-05-17T18:47:59.758Z,14.30
2019-05-17T18:50:27.574Z,14.30
2019-05-17T18:52:55.189Z,14.20
2019-05-17T18:55:23.857Z,14.20
2019-05-17T18:57:51.323Z,14.20
2019-05-17T19:00:18.953Z,14.20
2019-05-17T19:02:46.314Z,14.10
2019-05-17T19:05:15.727Z,14.10
2019-05-17T19:07:43.404Z,14.10
2019-05-17T19:10:11.594Z,14.00
2019-05-17T19:12:38.878Z,14.00
2019-05-17T19:15:06.664Z,13.90
2019-05-17T19:17:34.431Z,13.90
2019-05-17T19:20:01.645Z,13.90
2019-05-17T19:22:29.093Z,13.90
2019-05-17T19:24:56.537Z,13.90
2019-05-17T19:27:24.053Z,13.80
2019-05-17T19:29:51.428Z,13.70
2019-05-17T19:32:19.063Z,13.70
2019-05-17T19:34:46.560Z,13.70
2019-05-17T19:37:13.929Z,13.70
2019-05-17T19:39:41.439Z,13.70
2019-05-17T19:42:08.983Z,13.70
2019-05-17T19:44:36.329Z,13.70
2019-05-17T19:47:03.806Z,13.70
2019-05-17T19:49:31.359Z,13.70
2019-05-17T19:51:59.001Z,13.70
2019-05-17T19:54:26.634Z,13.70
2019-05-17T19:56:54.065Z,13.70
2019-05-17T19:59:21.532Z,13.70
2019-05-17T20:01:49.320Z,13.70
2019-05-17T20:04:16.558Z,13.70
2019-05-17T20:06:44.234Z,13.70
2019-05-17T20:09:12.178Z,13.70
2019-05-17T20:11:39.724Z,13.70
2019-05-17T20:14:07.015Z,13.60
2019-05-17T20:16:34.720Z,13.60
2019-05-17T20:19:02.053Z,13.60
2019-05-17T20:21:30.428Z,13.60
2019-05-17T20:23:57.621Z,13.60
2019-05-17T20:26:25.186Z,13.60
2019-05-17T20:28:52.510Z,13.50
2019-05-17T20:31:19.889Z,13.50
2019-05-17T20:33:47.287Z,13.50
2019-05-17T20:36:14.701Z,13.50
2019-05-17T20:38:42.962Z,13.50
2019-05-17T20:41:10.340Z,13.40
2019-05-17T20:43:37.887Z,13.40
2019-05-17T20:46:05.337Z,13.40
2019-05-17T20:48:32.674Z,13.40
2019-05-17T20:50:59.975Z,13.40
2019-05-17T20:53:28.568Z,13.40
2019-05-17T20:55:56.303Z,13.40
2019-05-17T20:58:23.677Z,13.30
2019-05-17T21:00:51.142Z,13.30
2019-05-17T21:03:18.360Z,13.30
2019-05-17T21:05:45.748Z,13.30
2019-05-17T21:08:14.296Z,13.30
2019-05-17T21:10:41.915Z,13.30
2019-05-17T21:13:09.217Z,13.20
2019-05-17T21:15:47.346Z,13.20
2019-05-17T21:18:05.753Z,13.20
2019-05-17T21:20:33.141Z,13.20
2019-05-17T21:23:00.765Z,13.20
2019-05-17T21:25:28.052Z,13.20
2019-05-17T21:27:55.473Z,13.20
2019-05-17T21:30:22.830Z,13.20
2019-05-17T21:32:50.081Z,13.20
2019-05-17T21:35:17.401Z,13.20
2019-05-17T21:37:44.791Z,13.20
2019-05-17T21:40:12.453Z,13.20
2019-05-17T21:42:39.642Z,13.20
2019-05-17T21:45:07.485Z,13.20
2019-05-17T21:47:34.692Z,13.10
2019-05-17T21:50:02.149Z,13.10
2019-05-17T21:52:29.502Z,13.10
2019-05-17T21:54:56.904Z,13.10
2019-05-17T21:57:24.269Z,13.10
2019-05-17T21:59:51.495Z,13.10
2019-05-17T22:02:19.050Z,13.10
2019-05-17T22:04:46.356Z,13.10
2019-05-17T22:07:13.706Z,13.10
2019-05-17T22:09:41.134Z,13.10
2019-05-17T22:12:10.189Z,13.10
2019-05-17T22:14:37.443Z,13.00
2019-05-17T22:17:04.779Z,13.00
2019-05-17T22:19:32.160Z,13.00
2019-05-17T22:21:59.428Z,12.90
2019-05-17T22:24:26.757Z,12.90
2019-05-17T22:26:54.038Z,12.90
2019-05-17T22:29:21.803Z,12.80
2019-05-17T22:31:49.032Z,12.80
2019-05-17T22:34:16.433Z,12.80
2019-05-17T22:36:43.848Z,12.80
2019-05-17T22:39:11.173Z,12.80
2019-05-17T22:41:38.698Z,12.80
2019-05-17T22:44:06.033Z,12.80
2019-05-17T22:46:36.343Z,12.80
2019-05-17T22:49:03.795Z,12.80
2019-05-17T22:51:31.019Z,12.80
2019-05-17T22:53:58.309Z,12.80
2019-05-17T22:56:26.038Z,12.80
2019-05-17T22:58:53.227Z,12.80
2019-05-17T23:01:20.762Z,12.70
2019-05-17T23:03:48.097Z,12.70
2019-05-17T23:06:15.292Z,12.70
2019-05-17T23:08:42.886Z,12.70
2019-05-17T23:11:10.274Z,12.70
2019-05-17T23:13:37.877Z,12.70
2019-05-17T23:16:09.314Z,12.70
2019-05-17T23:18:36.702Z,12.70
2019-05-17T23:21:04.280Z,12.70
2019-05-17T23:23:31.990Z,12.70
2019-05-17T23:26:00.157Z,12.70
2019-05-17T23:28:27.551Z,12.60
2019-05-17T23:30:55.188Z,12.60
2019-05-17T23:33:22.574Z,12.60
2019-05-17T23:35:49.874Z,12.60
2019-05-17T23:38:17.257Z,12.60
2019-05-17T23:40:44.731Z,12.60
2019-05-17T23:43:12.004Z,12.60
2019-05-17T23:45:40.765Z,12.60
2019-05-17T23:48:08.220Z,12.50
2019-05-17T23:50:35.643Z,12.50
2019-05-17T23:53:03.097Z,12.50
2019-05-17T23:55:30.467Z,12.50
2019-05-17T23:57:57.680Z,12.50
